createdAt,value
2022-11-28T00:01:35.752Z,25.65
2022-11-28T00:04:04.375Z,24.30
2022-11-28T00:06:32.328Z,25.70
2022-11-28T00:09:00.658Z,25.50
2022-11-28T00:11:28.685Z,25.98
2022-11-28T00:13:56.567Z,25.02
2022-11-28T00:16:25.002Z,24.50
2022-11-28T00:18:55.435Z,24.58
2022-11-28T00:21:23.851Z,24.98
2022-11-28T00:23:52.749Z,27.25
2022-11-28T00:26:41.192Z,26.80
2022-11-28T00:29:10.873Z,26.15
2022-11-28T00:31:43.097Z,26.88
2022-11-28T00:34:13.821Z,26.20
2022-11-28T00:36:46.185Z,26.63
2022-11-28T00:39:14.682Z,28.55
2022-11-28T00:41:42.791Z,27.65
2022-11-28T00:44:12.010Z,26.27
2022-11-28T00:46:40.024Z,28.25
2022-11-28T00:49:18.205Z,25.95
2022-11-28T00:51:47.415Z,24.67
2022-11-28T00:54:15.277Z,28.58
2022-11-28T00:56:43.331Z,26.73
2022-11-28T00:59:11.071Z,27.10
2022-11-28T01:01:43.991Z,28.75
2022-11-28T01:04:13.983Z,27.60
2022-11-28T01:06:43.969Z,26.92
2022-11-28T01:09:15.206Z,25.40
2022-11-28T01:11:43.242Z,23.10
2022-11-28T01:14:12.377Z,23.23
2022-11-28T01:16:40.436Z,25.35
2022-11-28T01:19:08.604Z,24.48
2022-11-28T01:21:36.565Z,23.95
2022-11-28T01:24:04.887Z,23.35
2022-11-28T01:26:33.070Z,23.77
2022-11-28T01:29:01.221Z,23.73
2022-11-28T01:31:29.816Z,22.83
2022-11-28T01:33:57.860Z,22.92
2022-11-28T01:36:25.934Z,22.63
2022-11-28T01:38:53.834Z,23.17
2022-11-28T01:41:23.798Z,22.52
2022-11-28T01:44:06.881Z,21.75
2022-11-28T01:46:35.853Z,22.95
2022-11-28T01:49:08.963Z,23.85
2022-11-28T01:51:36.866Z,26.00
2022-11-28T01:54:04.856Z,25.77
2022-11-28T01:57:05.058Z,26.48
2022-11-28T01:59:35.863Z,25.33
2022-11-28T02:02:05.710Z,27.00
2022-11-28T02:04:33.574Z,27.40
2022-11-28T02:07:01.434Z,26.02
2022-11-28T02:09:29.457Z,25.33
2022-11-28T02:12:34.989Z,26.83
2022-11-28T02:15:02.775Z,25.63
2022-11-28T02:17:45.519Z,27.30
2022-11-28T02:20:37.512Z,27.02
2022-11-28T02:23:14.523Z,28.30
2022-11-28T02:25:51.367Z,26.30
2022-11-28T02:28:56.432Z,26.02
2022-11-28T02:31:46.951Z,24.98
2022-11-28T02:34:41.122Z,25.27
2022-11-28T02:37:23.354Z,25.60
2022-11-28T02:40:06.994Z,26.13
2022-11-28T02:42:42.616Z,27.27
2022-11-28T02:45:35.717Z,25.80
2022-11-28T02:48:12.967Z,24.67
2022-11-28T02:50:47.703Z,24.00
2022-11-28T02:53:18.982Z,24.90
2022-11-28T02:55:47.071Z,25.10
2022-11-28T02:58:15.060Z,26.73
2022-11-28T03:00:43.962Z,26.55
2022-11-28T03:03:42.490Z,26.40
2022-11-28T03:06:13.785Z,27.58
2022-11-28T03:08:45.337Z,29.90
2022-11-28T03:11:37.232Z,29.85
2022-11-28T03:14:28.789Z,31.00
2022-11-28T03:17:08.940Z,31.38
2022-11-28T03:19:58.519Z,32.20
2022-11-28T03:22:37.232Z,32.00
2022-11-28T03:25:05.670Z,33.33
2022-11-28T03:27:49.454Z,33.50
2022-11-28T03:30:19.745Z,33.42
2022-11-28T03:32:49.214Z,37.25
2022-11-28T03:35:22.623Z,35.13
2022-11-28T03:38:32.066Z,37.65
2022-11-28T03:41:01.815Z,39.17
2022-11-28T03:43:33.074Z,39.22
2022-11-28T03:46:04.063Z,38.67
2022-11-28T03:48:35.039Z,38.17
2022-11-28T03:51:08.866Z,37.08
2022-11-28T03:53:44.218Z,37.88
2022-11-28T03:56:33.394Z,37.30
2022-11-28T03:59:25.737Z,35.35
2022-11-28T04:02:12.839Z,36.67
2022-11-28T04:04:40.801Z,34.20
2022-11-28T04:07:31.543Z,34.72
2022-11-28T04:10:20.116Z,34.38
2022-11-28T04:12:53.752Z,34.40
2022-11-28T04:15:42.367Z,36.35
2022-11-28T04:18:20.562Z,35.92
2022-11-28T04:21:10.515Z,35.08
2022-11-28T04:23:39.487Z,34.90
2022-11-28T04:26:23.496Z,33.25
2022-11-28T04:28:53.295Z,32.05
2022-11-28T04:31:22.742Z,35.95
2022-11-28T04:33:52.517Z,33.72
2022-11-28T04:36:20.696Z,33.58
2022-11-28T04:38:56.340Z,33.13
2022-11-28T04:41:35.929Z,35.20
2022-11-28T04:44:09.660Z,34.58
2022-11-28T04:46:45.113Z,33.53
2022-11-28T04:49:13.402Z,32.50
2022-11-28T04:52:09.383Z,31.75
2022-11-28T04:54:51.885Z,29.52
2022-11-28T04:57:30.022Z,27.40
2022-11-28T04:59:57.931Z,25.65
2022-11-28T05:02:25.790Z,26.25
2022-11-28T05:04:55.963Z,25.17
2022-11-28T05:07:24.721Z,22.20
2022-11-28T05:09:52.814Z,23.42
2022-11-28T05:12:20.562Z,20.30
2022-11-28T05:14:48.504Z,19.20
2022-11-28T05:17:16.358Z,18.85
2022-11-28T05:19:44.459Z,18.45
2022-11-28T05:22:12.318Z,16.05
2022-11-28T05:24:40.061Z,13.73
2022-11-28T05:27:08.057Z,13.50
2022-11-28T05:29:35.799Z,15.15
2022-11-28T05:32:04.541Z,15.60
2022-11-28T05:34:32.522Z,15.38
2022-11-28T05:37:00.455Z,13.25
2022-11-28T05:39:28.502Z,14.60
2022-11-28T05:41:59.087Z,19.42
2022-11-28T05:44:27.493Z,16.20
2022-11-28T05:46:55.601Z,12.35
2022-11-28T05:49:24.033Z,13.63
2022-11-28T05:51:52.637Z,12.27
2022-11-28T05:54:20.576Z,12.10
2022-11-28T05:56:48.727Z,12.88
2022-11-28T05:59:16.545Z,13.70
2022-11-28T20:44:10.872Z,15.40
2022-11-28T20:46:55.310Z,14.57
2022-11-28T20:49:23.935Z,11.82
2022-11-28T20:55:13.850Z,15.43
2022-11-28T20:57:44.045Z,12.35
2022-11-28T21:00:14.837Z,13.50
2022-11-28T21:02:42.649Z,13.35
2022-11-28T21:05:16.720Z,11.82
2022-11-28T21:08:17.400Z,12.23
2022-11-28T21:11:50.242Z,12.25
2022-11-28T21:14:09.934Z,10.48
2022-11-28T21:16:37.888Z,14.27
2022-11-28T21:19:07.752Z,15.23
2022-11-28T21:21:37.066Z,13.52
2022-11-28T21:24:07.329Z,15.32
2022-11-28T21:26:40.911Z,17.20
2022-11-28T21:29:13.069Z,15.68
2022-11-28T21:31:42.741Z,12.73
2022-11-28T21:34:14.626Z,11.65
2022-11-28T21:36:43.629Z,13.65
2022-11-28T21:39:17.447Z,12.10
2022-11-28T21:41:45.808Z,12.48
2022-11-28T21:44:15.923Z,14.48
2022-11-28T21:56:22.983Z,12.55
2022-11-28T21:58:51.097Z,11.68
2022-11-28T22:01:21.781Z,11.15
2022-11-28T22:04:03.153Z,11.88
2022-11-28T22:06:32.392Z,10.70
2022-11-28T22:09:08.294Z,12.07
2022-11-28T22:11:38.601Z,11.30
2022-11-28T22:14:14.369Z,11.07
2022-11-28T22:16:42.677Z,12.02
2022-11-28T22:19:22.766Z,11.75
2022-11-28T22:22:20.090Z,11.43
2022-11-28T22:24:59.625Z,10.93
2022-11-28T22:27:38.420Z,12.25
2022-11-28T22:30:07.058Z,10.73
2022-11-28T22:32:35.062Z,11.60
2022-11-28T22:35:03.713Z,9.93
2022-11-28T22:37:31.903Z,10.85
2022-11-28T22:39:59.785Z,10.65
2022-11-28T22:42:28.075Z,10.38
2022-11-28T22:44:56.865Z,11.23
2022-11-28T22:47:41.645Z,8.50
2022-11-28T22:50:10.054Z,11.85
2022-11-28T22:52:38.212Z,10.48
2022-11-28T22:55:06.564Z,8.65
2022-11-28T22:57:34.381Z,10.40
2022-11-28T23:00:05.871Z,11.25
2022-11-28T23:02:33.913Z,10.02
2022-11-28T23:05:01.824Z,11.32
2022-11-28T23:07:29.733Z,10.75
2022-11-28T23:09:58.364Z,10.13
2022-11-28T23:12:26.392Z,10.77
2022-11-28T23:14:54.218Z,10.18
2022-11-28T23:17:22.075Z,10.48
2022-11-28T23:19:49.989Z,12.10
2022-11-28T23:22:19.151Z,10.75
2022-11-28T23:24:52.716Z,11.20
2022-11-28T23:27:21.347Z,10.88
2022-11-28T23:29:49.248Z,10.90
2022-11-28T23:32:20.236Z,10.57
2022-11-28T23:34:48.009Z,10.82
2022-11-28T23:37:15.944Z,11.00
2022-11-28T23:39:44.447Z,11.13
2022-11-28T23:42:14.877Z,11.68
2022-11-28T23:44:43.199Z,11.27
2022-11-28T23:47:11.092Z,11.45
2022-11-28T23:49:39.054Z,11.32
2022-11-28T23:52:06.894Z,10.88
2022-11-28T23:54:52.582Z,9.73
2022-11-28T23:57:20.618Z,10.63
2022-11-28T23:59:48.379Z,11.25
